Airdrie Aerodrome

CEF4 · 艾伯塔, 加拿大

罗盘
风向 的 风向 的 风向 到 风向 020° Airdrie Aerodrome 12/30
风向 到 风: 17 kt, 阵阵 25 kt, 5 beaufort

8 kt

15 kt
改变
0 ft 6.000 12.000 18.000 24.000 30.000
Cloud Cloud Cloud Cloud
SCT 6.500
Cloud Cloud Cloud Cloud Cloud Cloud
BKN 25.000
METAR SPECI CYYC 182305Z 02017G25KT 330V030 15SM SCT065 BKN250 02/M14 A3037 RMK SC3CI4 SLP340=

METAR Airdrie Aerodrome - CEF4

Airdrie Aerodrome是,加拿大中的小机场。 该机场位于纬度51,26373和经度-113,93444。 该机场有一条跑道: 12/30. 该机场的伪ICAO代码为CEF4。 机场在Edmonton FIR中。

该航空气象观测是针对Calgary International Airport在2024年4月18日 17:05, 当地时间进行的。

机场观察

风向为020°,速度为17 kt。 已测得25 kt的阵风。 风向在330°和030°之间变化。

可见度为15 mi。

有疏云,零星散落的云朵在6.500 ft的高度 和 碎云在25.000 ft的高度。 破损或更高的上限为25.000 ft。

温度为2 °C,阵风为-6 °C。 露点为-14 °C,相对湿度为30%。 海平面上的气压为30,37 inHg (QNH)。

白天

今天,太阳从06:31升起,在20:37降落。 这适用于Airdrie Aerodrome,世界夏令时可能有所不同。 当地时间与世界标准时间之间的时差为-6 小时。 夏令时目前正在进行中。

公司介绍

本场上唯一已知的公司是Robot Skies。

体会

到Vliegles.nl去找飞行课程,跳伞和其他飞行体验。 浏览页面,了解Airdrie Aerodrome附近所有可用的活动。 你也可以使用搜索功能来寻找你所在地附近的特定飞行课程、跳伞或其他飞行体验。

跑道

Id 标题 侧风 逆风 侧风 %
12/30 138°-318° 15-22 kt 8-12 kt 88 %

逆风成分最大的方向会被突出显示,并用于横风计算。 这并不一定意味着这个方向在使用。

乌云

6.500 ft SCT 疏云,零星散落的云朵
25.000 ft BKN 碎云

温度 & 天气

温度 2 °C
露点 -14 °C
相对湿度 30%
风寒 -6 °C
Kp-index 2 (0-9)

评论

SLP340海平面压力为30,53 inHg (30,53 inHg)
SC3CI4

白天

日出
06:32
中午
13:35
日落
20:37 (3:13)

小工具

你想在你的网站上有一个关于Airdrie Aerodrome的当前航空天气(METAR)的小部件吗?

显示HTML代码
报告变更